createdAt,value
2019-03-28T00:00:59.336Z,13.97
2019-03-28T00:03:27.145Z,15.17
2019-03-28T00:05:55.056Z,14.87
2019-03-28T00:08:22.720Z,16.30
2019-03-28T00:10:50.467Z,14.80
2019-03-28T00:13:18.416Z,15.00
2019-03-28T00:15:46.157Z,14.60
2019-03-28T00:18:13.921Z,15.07
2019-03-28T00:20:41.684Z,15.33
2019-03-28T00:23:44.205Z,14.23
2019-03-28T00:26:12.040Z,13.23
2019-03-28T00:28:39.804Z,15.40
2019-03-28T00:31:07.702Z,14.57
2019-03-28T00:33:35.465Z,14.07
2019-03-28T00:36:03.312Z,13.87
2019-03-28T00:38:31.060Z,14.77
2019-03-28T00:40:59.016Z,15.30
2019-03-28T00:43:27.066Z,14.90
2019-03-28T00:45:54.815Z,14.63
2019-03-28T00:48:22.568Z,13.60
2019-03-28T00:50:50.328Z,14.50
2019-03-28T00:53:18.084Z,14.77
2019-03-28T00:55:45.812Z,16.60
2019-03-28T00:58:13.571Z,15.17
2019-03-28T01:00:41.317Z,14.47
2019-03-28T01:03:09.048Z,16.20
2019-03-28T01:05:36.871Z,15.60
2019-03-28T01:08:04.757Z,15.37
2019-03-28T01:10:32.484Z,15.90
2019-03-28T01:13:00.226Z,16.13
2019-03-28T01:15:27.980Z,15.80
2019-03-28T01:17:55.721Z,16.20
2019-03-28T01:20:23.488Z,15.83
2019-03-28T01:22:51.221Z,14.77
2019-03-28T01:25:18.964Z,13.90
2019-03-28T01:27:46.714Z,15.03
2019-03-28T01:30:14.688Z,16.53
2019-03-28T01:32:42.500Z,14.03
2019-03-28T01:35:11.161Z,13.93
2019-03-28T01:37:38.902Z,15.43
2019-03-28T01:40:07.282Z,14.70
2019-03-28T01:42:35.034Z,16.60
2019-03-28T01:45:03.264Z,16.43
2019-03-28T01:47:31.044Z,14.93
2019-03-28T01:49:58.796Z,15.60
2019-03-28T01:52:26.568Z,15.30
2019-03-28T01:54:54.763Z,15.87
2019-03-28T01:57:23.080Z,16.93
2019-03-28T01:59:50.840Z,15.73
2019-03-28T02:02:18.601Z,17.10
2019-03-28T02:04:46.329Z,15.73
2019-03-28T02:07:14.184Z,14.70
2019-03-28T02:09:41.924Z,21.70
2019-03-28T02:12:09.680Z,17.80
2019-03-28T02:14:38.305Z,15.87
2019-03-28T02:17:06.168Z,14.97
2019-03-28T02:19:34.008Z,16.10
2019-03-28T02:22:01.765Z,15.30
2019-03-28T02:24:29.504Z,16.73
2019-03-28T02:26:57.265Z,16.00
2019-03-28T02:29:25.008Z,16.10
2019-03-28T02:31:52.762Z,17.03
2019-03-28T02:34:20.493Z,16.47
2019-03-28T02:36:49.156Z,16.50
2019-03-28T02:39:16.921Z,16.60
2019-03-28T02:41:44.769Z,16.00
2019-03-28T02:44:12.556Z,16.17
2019-03-28T02:46:40.291Z,17.27
2019-03-28T02:49:08.031Z,17.73
2019-03-28T02:51:35.881Z,17.90
2019-03-28T02:54:03.640Z,17.57
2019-03-28T02:56:31.504Z,17.30
2019-03-28T02:58:59.261Z,15.57
2019-03-28T03:01:30.089Z,16.73
2019-03-28T03:03:56.705Z,15.50
2019-03-28T03:06:24.762Z,15.10
2019-03-28T03:08:52.541Z,15.57
2019-03-28T03:11:20.301Z,14.37
2019-03-28T03:13:48.058Z,14.50
2019-03-28T03:16:15.788Z,15.10
2019-03-28T03:18:43.565Z,15.03
2019-03-28T03:21:11.389Z,13.67
2019-03-28T03:23:39.154Z,15.33
2019-03-28T03:26:06.917Z,15.37
2019-03-28T03:28:34.659Z,14.87
2019-03-28T03:31:02.395Z,13.73
2019-03-28T03:33:30.159Z,13.93
2019-03-28T03:35:58.009Z,14.00
2019-03-28T03:38:26.719Z,14.70
2019-03-28T03:40:54.891Z,14.70
2019-03-28T03:43:23.166Z,15.33
2019-03-28T03:45:51.265Z,14.00
2019-03-28T03:48:19.013Z,14.20
2019-03-28T03:50:46.761Z,15.07
2019-03-28T03:53:14.444Z,14.20
2019-03-28T03:55:42.293Z,14.67
2019-03-28T03:58:16.434Z,14.40
2019-03-28T04:00:39.782Z,15.23
2019-03-28T04:03:07.558Z,13.57
2019-03-28T04:05:35.380Z,15.83
2019-03-28T04:08:03.178Z,13.60
2019-03-28T04:10:31.032Z,13.20
2019-03-28T04:12:58.774Z,14.43
2019-03-28T04:15:26.567Z,14.10
2019-03-28T04:17:54.303Z,13.93
2019-03-28T04:20:22.038Z,13.97
2019-03-28T04:22:49.777Z,14.83
2019-03-28T04:25:17.624Z,16.33
2019-03-28T04:27:57.339Z,18.27
2019-03-28T04:30:25.052Z,16.20
2019-03-28T04:32:52.804Z,15.63
2019-03-28T04:35:20.566Z,14.97
2019-03-28T04:37:48.405Z,14.50
2019-03-28T04:40:17.084Z,14.60
2019-03-28T04:42:46.003Z,16.30
2019-03-28T04:45:13.950Z,15.27
2019-03-28T04:47:41.704Z,16.00
2019-03-28T04:50:10.328Z,15.60
2019-03-28T04:52:38.281Z,14.17
2019-03-28T04:55:06.648Z,15.73
2019-03-28T04:57:34.414Z,15.23
2019-03-28T05:00:02.523Z,14.13
2019-03-28T05:02:31.329Z,14.17
2019-03-28T05:04:59.485Z,13.57
2019-03-28T05:07:27.221Z,13.63
2019-03-28T05:09:54.860Z,14.07
2019-03-28T05:12:22.653Z,13.80
2019-03-28T05:14:50.380Z,15.80
2019-03-28T05:17:18.160Z,14.10
2019-03-28T05:19:46.020Z,14.17
2019-03-28T05:22:13.765Z,13.07
2019-03-28T05:24:41.513Z,11.83
2019-03-28T05:27:09.268Z,14.40
2019-03-28T05:29:36.988Z,12.23
2019-03-28T05:32:07.025Z,12.77
2019-03-28T05:34:34.780Z,12.17
2019-03-28T05:37:02.529Z,12.40
2019-03-28T05:39:30.348Z,12.47
2019-03-28T05:41:58.146Z,12.07
2019-03-28T05:44:25.880Z,11.83
2019-03-28T05:46:53.628Z,11.33
2019-03-28T05:49:21.446Z,11.73
2019-03-28T05:51:49.229Z,10.97
2019-03-28T05:54:17.000Z,11.33
2019-03-28T05:56:44.880Z,11.07
2019-03-28T05:59:12.604Z,11.83
2019-03-28T06:01:40.493Z,11.10
2019-03-28T06:04:08.432Z,11.17
2019-03-28T06:06:36.401Z,10.10
2019-03-28T06:09:06.349Z,9.97
2019-03-28T06:11:34.144Z,11.43
2019-03-28T06:14:01.956Z,11.40
2019-03-28T06:16:29.700Z,10.80
2019-03-28T06:18:57.465Z,10.20
2019-03-28T06:21:25.216Z,10.97
2019-03-28T06:23:53.101Z,10.33
2019-03-28T06:26:21.081Z,10.07
2019-03-28T06:28:48.824Z,9.77
2019-03-28T06:31:16.561Z,9.27
2019-03-28T06:33:44.299Z,10.10
2019-03-28T06:36:12.046Z,9.77
2019-03-28T06:38:39.784Z,10.13
2019-03-28T06:41:07.882Z,10.60
2019-03-28T06:43:36.536Z,8.77
2019-03-28T06:46:04.312Z,8.70
2019-03-28T06:48:32.065Z,10.00
2019-03-28T06:50:59.798Z,9.23
2019-03-28T06:53:27.552Z,9.03
2019-03-28T06:55:55.302Z,9.60
2019-03-28T06:58:23.063Z,9.13
2019-03-28T07:00:50.811Z,9.00
2019-03-28T07:03:18.560Z,8.13
2019-03-28T07:05:46.289Z,9.20
2019-03-28T07:08:14.090Z,9.97
2019-03-28T07:10:41.832Z,9.40
2019-03-28T07:13:10.350Z,9.67
2019-03-28T07:15:38.282Z,11.13
2019-03-28T07:18:06.033Z,9.33
2019-03-28T07:20:33.832Z,10.80
2019-03-28T07:23:01.573Z,8.67
2019-03-28T07:25:30.474Z,9.57
2019-03-28T07:27:58.337Z,9.90
2019-03-28T07:30:26.092Z,8.90
2019-03-28T07:32:54.008Z,7.37
2019-03-28T07:35:21.755Z,8.07
2019-03-28T07:37:49.640Z,7.67
2019-03-28T07:40:17.573Z,8.70
2019-03-28T07:42:45.324Z,8.03
2019-03-28T07:45:14.320Z,7.90
2019-03-28T07:47:42.119Z,8.77
2019-03-28T07:50:10.242Z,7.90
2019-03-28T07:52:38.131Z,8.53
2019-03-28T07:55:07.493Z,7.47
2019-03-28T07:57:35.361Z,9.00
2019-03-28T08:00:05.806Z,9.03
2019-03-28T08:02:33.545Z,8.50
2019-03-28T08:05:02.112Z,8.30
2019-03-28T08:07:30.185Z,8.93
2019-03-28T08:09:58.021Z,8.57
2019-03-28T08:12:25.769Z,9.57
2019-03-28T08:14:53.512Z,9.70
2019-03-28T08:17:21.289Z,8.40
2019-03-28T08:19:49.129Z,10.50
2019-03-28T08:22:16.893Z,9.37
2019-03-28T08:24:44.642Z,8.70
2019-03-28T08:27:12.381Z,9.10
2019-03-28T08:29:40.196Z,8.90
2019-03-28T08:32:13.652Z,8.73
2019-03-28T08:34:41.575Z,8.70
2019-03-28T08:37:09.328Z,8.47
2019-03-28T08:39:37.365Z,8.17
2019-03-28T08:42:05.110Z,8.40
2019-03-28T08:44:32.844Z,9.00
2019-03-28T08:47:00.650Z,9.07
2019-03-28T08:49:28.784Z,9.87
2019-03-28T08:51:56.545Z,9.43
2019-03-28T08:54:24.321Z,9.00
2019-03-28T08:56:52.056Z,8.80
2019-03-28T08:59:19.808Z,8.10
2019-03-28T09:04:33.607Z,8.70
2019-03-28T09:07:01.365Z,9.50
2019-03-28T09:09:29.113Z,7.60
2019-03-28T09:11:56.876Z,8.70
2019-03-28T09:14:24.626Z,8.97
2019-03-28T09:17:01.241Z,8.70
2019-03-28T09:22:15.073Z,8.50
2019-03-28T09:24:42.858Z,8.23
2019-03-28T09:27:10.700Z,9.30
2019-03-28T09:29:38.455Z,7.87
2019-03-28T09:32:06.209Z,7.60
2019-03-28T09:34:34.077Z,6.87
2019-03-28T09:37:01.814Z,7.40
2019-03-28T09:39:29.568Z,7.17
2019-03-28T09:41:57.494Z,8.70
2019-03-28T09:44:25.300Z,7.23
2019-03-28T09:46:53.056Z,6.93
2019-03-28T09:49:20.825Z,6.40
2019-03-28T09:51:48.578Z,7.13
2019-03-28T09:54:16.349Z,7.70
2019-03-28T09:56:44.088Z,6.97
2019-03-28T09:59:11.949Z,5.80
2019-03-28T10:01:39.688Z,8.10
2019-03-28T10:04:07.477Z,8.10
2019-03-28T10:06:35.241Z,8.37
2019-03-28T10:09:04.497Z,8.33
2019-03-28T10:11:32.235Z,9.00
2019-03-28T10:14:00.023Z,7.13
2019-03-28T10:16:27.947Z,7.67
2019-03-28T10:18:55.824Z,8.07
2019-03-28T10:21:23.668Z,7.80
2019-03-28T10:23:51.414Z,8.40
2019-03-28T10:26:19.158Z,9.47
2019-03-28T10:28:46.903Z,6.90
2019-03-28T10:31:16.654Z,8.83
2019-03-28T10:33:44.412Z,7.50
2019-03-28T10:36:12.198Z,7.10
2019-03-28T10:38:40.070Z,8.07
2019-03-28T10:41:07.827Z,7.20
2019-03-28T10:43:35.664Z,6.97
2019-03-28T10:46:03.445Z,7.10
2019-03-28T10:48:31.218Z,6.77
2019-03-28T10:50:59.889Z,7.73
2019-03-28T10:53:30.086Z,7.47
2019-03-28T10:55:57.615Z,7.73
2019-03-28T10:58:25.404Z,7.60
2019-03-28T11:00:54.732Z,8.10
2019-03-28T11:03:22.800Z,8.20
2019-03-28T11:06:02.835Z,9.10
2019-03-28T11:08:30.649Z,7.13
2019-03-28T11:10:58.629Z,5.80
2019-03-28T11:13:26.640Z,6.13
2019-03-28T11:15:54.481Z,7.53
2019-03-28T11:18:22.284Z,6.70
2019-03-28T11:20:50.168Z,7.30
2019-03-28T11:23:17.954Z,6.23
2019-03-28T11:25:45.745Z,7.00
2019-03-28T11:28:13.538Z,7.57
2019-03-28T11:30:41.380Z,6.80
2019-03-28T11:33:09.221Z,6.50
2019-03-28T11:35:36.970Z,7.47
2019-03-28T11:38:05.062Z,7.20
2019-03-28T11:40:32.921Z,7.77
2019-03-28T11:43:00.844Z,8.20
2019-03-28T11:45:28.709Z,7.97
2019-03-28T11:47:56.604Z,7.77
2019-03-28T11:50:24.612Z,7.73
2019-03-28T11:52:53.329Z,8.10
2019-03-28T11:55:21.169Z,9.47
2019-03-28T11:57:48.945Z,9.17
2019-03-28T12:00:18.303Z,8.23
2019-03-28T12:02:46.044Z,9.33
2019-03-28T12:05:14.074Z,7.27
2019-03-28T12:07:42.015Z,8.47
2019-03-28T12:10:12.056Z,7.73
2019-03-28T12:12:39.813Z,9.20
2019-03-28T12:15:08.656Z,8.80
2019-03-28T12:17:36.496Z,8.73
2019-03-28T12:20:05.168Z,7.33
2019-03-28T12:22:32.932Z,9.10
2019-03-28T12:25:01.053Z,7.17
2019-03-28T12:27:28.894Z,9.83
2019-03-28T12:29:56.640Z,8.20
2019-03-28T12:32:24.493Z,9.07
2019-03-28T12:34:52.156Z,6.73
2019-03-28T12:37:19.949Z,7.37
2019-03-28T12:39:48.161Z,6.90
2019-03-28T12:42:16.053Z,6.20
2019-03-28T12:44:56.366Z,5.97
2019-03-28T12:47:13.557Z,6.03
2019-03-28T12:49:41.349Z,7.70
2019-03-28T12:52:09.072Z,6.10
2019-03-28T12:54:36.833Z,6.90
2019-03-28T12:57:04.959Z,6.17
2019-03-28T12:59:33.745Z,7.00
2019-03-28T13:02:01.868Z,6.53
2019-03-28T13:04:29.629Z,6.07
2019-03-28T13:06:57.438Z,6.67
2019-03-28T13:09:25.293Z,7.30
2019-03-28T13:11:53.405Z,7.10
2019-03-28T13:14:21.560Z,7.03
2019-03-28T13:16:49.516Z,6.50
2019-03-28T13:19:18.113Z,7.20
2019-03-28T13:21:46.066Z,7.10
2019-03-28T13:24:14.972Z,5.90
2019-03-28T13:26:42.981Z,5.17
2019-03-28T13:29:11.249Z,6.03
2019-03-28T13:31:40.585Z,6.63
2019-03-28T13:34:08.408Z,7.10
2019-03-28T13:36:37.089Z,7.07
2019-03-28T13:39:06.581Z,8.70
2019-03-28T13:41:34.344Z,7.70
2019-03-28T13:44:02.081Z,6.50
2019-03-28T13:46:29.842Z,6.80
2019-03-28T13:48:57.609Z,5.90
2019-03-28T13:51:25.437Z,6.37
2019-03-28T13:53:54.136Z,5.50
2019-03-28T13:56:22.033Z,5.77
2019-03-28T13:58:49.771Z,5.50
2019-03-28T14:01:17.557Z,5.90
2019-03-28T14:03:45.465Z,6.60
2019-03-28T14:06:13.219Z,7.17
2019-03-28T14:08:40.985Z,7.53
2019-03-28T14:11:08.826Z,6.27
2019-03-28T14:13:36.571Z,6.90
2019-03-28T14:16:04.367Z,5.90
2019-03-28T14:18:32.283Z,6.13
2019-03-28T14:21:00.028Z,6.40
2019-03-28T14:23:27.902Z,6.50
2019-03-28T14:25:55.708Z,5.70
2019-03-28T14:28:23.726Z,5.37
2019-03-28T14:30:51.773Z,5.10
2019-03-28T14:33:19.680Z,5.50
2019-03-28T14:35:47.478Z,5.03
2019-03-28T14:38:16.212Z,5.67
2019-03-28T14:40:43.969Z,6.33
2019-03-28T14:43:11.735Z,6.50
2019-03-28T14:45:39.505Z,5.90
2019-03-28T14:48:08.296Z,6.60
2019-03-28T14:50:38.428Z,6.93
2019-03-28T14:53:06.231Z,6.30
2019-03-28T14:55:34.713Z,6.37
2019-03-28T14:58:03.876Z,6.80
2019-03-28T15:00:49.193Z,7.03
2019-03-28T15:03:25.668Z,6.50
2019-03-28T15:05:47.333Z,5.67
2019-03-28T15:08:15.101Z,4.90
2019-03-28T15:10:42.973Z,4.60
2019-03-28T15:13:10.751Z,5.47
2019-03-28T15:15:38.506Z,4.80
2019-03-28T15:18:06.277Z,5.33
2019-03-28T15:20:34.092Z,4.50
2019-03-28T15:23:02.077Z,5.03
2019-03-28T15:25:29.856Z,4.83
2019-03-28T15:27:57.738Z,5.10
2019-03-28T15:30:25.507Z,5.20
2019-03-28T15:32:53.272Z,5.13
2019-03-28T15:35:21.037Z,6.00
2019-03-28T15:37:48.825Z,5.40
2019-03-28T15:40:16.564Z,7.20
2019-03-28T15:42:44.512Z,6.60
2019-03-28T15:45:12.518Z,5.70
2019-03-28T15:47:40.252Z,5.90
2019-03-28T15:50:08.313Z,5.77
2019-03-28T15:52:36.077Z,6.00
2019-03-28T15:55:05.252Z,6.70
2019-03-28T15:57:33.944Z,6.37
2019-03-28T16:00:01.790Z,6.07
2019-03-28T16:02:29.524Z,8.50
2019-03-28T16:04:57.397Z,7.90
2019-03-28T16:07:25.286Z,8.20
2019-03-28T16:09:53.115Z,9.47
2019-03-28T16:12:20.978Z,9.17
2019-03-28T16:14:48.868Z,9.20
2019-03-28T16:17:16.593Z,10.00
2019-03-28T16:19:57.740Z,10.00
2019-03-28T16:22:25.648Z,8.30
2019-03-28T16:24:53.462Z,9.83
2019-03-28T16:27:21.245Z,9.33
2019-03-28T16:29:48.982Z,9.83
2019-03-28T16:32:16.645Z,10.63
2019-03-28T16:34:44.419Z,11.10
2019-03-28T16:37:12.188Z,11.90
2019-03-28T16:39:40.083Z,12.60
2019-03-28T16:42:07.847Z,15.83
2019-03-28T16:44:35.580Z,15.90
2019-03-28T16:47:03.344Z,16.07
2019-03-28T16:49:31.084Z,16.67
2019-03-28T16:51:58.863Z,16.13
2019-03-28T16:54:27.863Z,15.80
2019-03-28T16:56:55.836Z,16.57
2019-03-28T16:59:23.661Z,16.17
2019-03-28T17:01:51.393Z,17.10
2019-03-28T17:04:21.025Z,16.90
2019-03-28T17:06:49.068Z,16.47
2019-03-28T17:09:16.894Z,14.97
2019-03-28T17:11:44.677Z,12.93
2019-03-28T17:14:12.437Z,14.80
2019-03-28T17:16:40.281Z,15.40
2019-03-28T17:19:08.110Z,16.80
2019-03-28T17:21:35.949Z,15.20
2019-03-28T17:24:03.701Z,16.30
2019-03-28T17:26:31.464Z,16.20
2019-03-28T17:28:59.312Z,16.30
2019-03-28T17:31:27.265Z,16.73
2019-03-28T17:33:55.108Z,18.30
2019-03-28T17:36:22.896Z,18.17
2019-03-28T17:38:50.787Z,17.67
2019-03-28T17:41:18.684Z,18.90
2019-03-28T17:43:46.421Z,17.40
2019-03-28T17:46:14.260Z,18.00
2019-03-28T17:48:42.088Z,19.13
2019-03-28T17:51:09.930Z,20.80
2019-03-28T17:53:37.872Z,19.50
2019-03-28T17:56:05.780Z,19.30
2019-03-28T17:58:33.536Z,19.60
2019-03-28T18:01:01.289Z,21.37
2019-03-28T18:03:31.433Z,21.00
2019-03-28T18:05:58.882Z,20.07
2019-03-28T18:08:26.760Z,21.03
2019-03-28T18:10:54.499Z,21.43
2019-03-28T18:13:22.244Z,20.97
2019-03-28T18:15:50.029Z,21.70
2019-03-28T18:18:17.793Z,21.67
2019-03-28T18:20:45.525Z,21.83
2019-03-28T18:23:13.279Z,22.10
2019-03-28T18:25:41.017Z,21.90
2019-03-28T18:28:09.666Z,23.00
2019-03-28T18:30:37.617Z,22.90
2019-03-28T18:33:05.479Z,22.97
2019-03-28T18:35:33.228Z,23.93
2019-03-28T18:38:00.982Z,24.00
2019-03-28T18:40:28.740Z,30.20
2019-03-28T18:42:56.469Z,25.10
2019-03-28T18:45:24.334Z,34.63
2019-03-28T18:47:52.377Z,37.47
2019-03-28T18:50:20.212Z,25.40
2019-03-28T18:52:48.060Z,22.73
2019-03-28T18:55:15.929Z,21.20
2019-03-28T18:57:43.681Z,23.07
2019-03-28T19:00:12.166Z,23.53
2019-03-28T19:02:39.936Z,23.20
2019-03-28T19:05:19.154Z,23.43
2019-03-28T19:07:37.738Z,23.20
2019-03-28T19:10:06.905Z,24.33
2019-03-28T19:12:34.654Z,24.27
2019-03-28T19:15:03.501Z,25.37
2019-03-28T19:17:31.362Z,23.97
2019-03-28T19:19:59.644Z,24.37
2019-03-28T19:22:27.588Z,23.80
2019-03-28T19:24:55.348Z,24.70
2019-03-28T19:27:23.084Z,24.87
2019-03-28T19:37:32.909Z,26.57
2019-03-28T19:40:00.785Z,43.40
2019-03-28T19:42:29.095Z,38.77
2019-03-28T19:44:56.952Z,36.00
2019-03-28T19:47:24.761Z,32.90
2019-03-28T19:49:52.658Z,33.30
2019-03-28T19:52:20.578Z,29.03
2019-03-28T19:54:48.454Z,28.80
2019-03-28T19:57:16.218Z,27.60
2019-03-28T19:59:43.965Z,26.17
2019-03-28T20:02:14.222Z,27.73
2019-03-28T20:04:41.553Z,26.67
2019-03-28T20:07:20.823Z,27.10
2019-03-28T20:09:39.085Z,26.47
2019-03-28T20:12:06.877Z,27.30
2019-03-28T20:14:34.740Z,28.63
2019-03-28T20:17:02.473Z,27.63
2019-03-28T20:19:30.212Z,27.53
2019-03-28T20:21:59.538Z,31.43
2019-03-28T20:24:27.689Z,30.50
2019-03-28T20:26:56.113Z,29.03
2019-03-28T20:29:24.089Z,27.07
2019-03-28T20:31:51.835Z,27.00
2019-03-28T20:34:19.576Z,27.37
2019-03-28T20:36:47.417Z,33.13
2019-03-28T20:39:15.180Z,30.63
2019-03-28T20:41:43.055Z,27.13
2019-03-28T20:44:11.799Z,28.60
2019-03-28T20:46:40.848Z,28.97
2019-03-28T20:49:09.620Z,29.93
2019-03-28T20:51:37.716Z,26.57
2019-03-28T20:54:07.752Z,27.00
2019-03-28T20:56:35.103Z,27.00
2019-03-28T20:59:02.945Z,28.30
2019-03-28T21:01:30.973Z,27.33
2019-03-28T21:03:58.916Z,28.67
2019-03-28T21:06:26.797Z,25.70
2019-03-28T21:08:54.568Z,25.87
2019-03-28T21:11:23.017Z,25.80
2019-03-28T21:13:50.817Z,24.27
2019-03-28T21:16:18.546Z,23.53
2019-03-28T21:18:46.298Z,26.90
2019-03-28T21:21:14.064Z,27.63
2019-03-28T21:23:41.833Z,28.53
2019-03-28T21:26:09.598Z,25.90
2019-03-28T21:28:46.999Z,27.23
2019-03-28T21:31:06.998Z,28.00
2019-03-28T21:33:34.746Z,29.47
2019-03-28T21:36:02.497Z,30.93
2019-03-28T21:38:30.292Z,28.10
2019-03-28T21:40:59.523Z,28.33
2019-03-28T21:43:27.757Z,28.57
2019-03-28T21:45:55.727Z,30.70
2019-03-28T21:48:23.642Z,29.47
2019-03-28T21:50:51.527Z,28.83
2019-03-28T21:53:20.150Z,32.00
2019-03-28T21:55:54.884Z,31.50
2019-03-28T21:58:19.132Z,31.57
2019-03-28T22:00:46.947Z,31.93
2019-03-28T22:03:15.047Z,28.70
2019-03-28T22:05:43.086Z,29.80
2019-03-28T22:08:10.773Z,30.37
2019-03-28T22:10:39.053Z,28.87
2019-03-28T22:13:07.060Z,26.87
2019-03-28T22:15:34.986Z,26.43
2019-03-28T22:18:02.954Z,26.57
2019-03-28T22:20:30.688Z,25.50
2019-03-28T22:22:58.457Z,26.33
2019-03-28T22:25:26.214Z,27.83
2019-03-28T22:27:54.053Z,27.43
2019-03-28T22:30:21.796Z,28.10
2019-03-28T22:32:50.065Z,31.57
2019-03-28T22:35:18.238Z,31.27
2019-03-28T22:37:45.989Z,30.87
2019-03-28T22:40:13.928Z,29.17
2019-03-28T22:42:41.693Z,30.27
2019-03-28T22:45:11.253Z,28.50
2019-03-28T22:47:38.976Z,29.50
2019-03-28T22:50:08.151Z,28.37
2019-03-28T22:52:35.868Z,26.50
2019-03-28T22:55:04.607Z,25.93
2019-03-28T22:57:32.351Z,26.30
2019-03-28T23:00:00.161Z,28.77
2019-03-28T23:02:29.004Z,27.10
2019-03-28T23:04:57.035Z,27.40
2019-03-28T23:07:24.765Z,25.60
2019-03-28T23:09:52.536Z,25.90
2019-03-28T23:12:20.293Z,28.07
2019-03-28T23:14:48.031Z,27.27
2019-03-28T23:17:15.778Z,26.70
2019-03-28T23:19:43.599Z,27.33
2019-03-28T23:22:11.356Z,28.87
2019-03-28T23:24:39.219Z,29.27
2019-03-28T23:27:07.089Z,33.30
2019-03-28T23:29:34.829Z,30.20
2019-03-28T23:32:02.564Z,30.13
2019-03-28T23:34:30.331Z,29.07
2019-03-28T23:36:58.199Z,30.43
2019-03-28T23:39:26.632Z,29.07
2019-03-28T23:41:54.396Z,31.27
2019-03-28T23:44:22.132Z,31.03
2019-03-28T23:46:49.894Z,28.73
2019-03-28T23:49:17.652Z,25.90
2019-03-28T23:51:45.402Z,25.07
2019-03-28T23:54:13.166Z,24.77
2019-03-28T23:56:40.956Z,26.40
2019-03-28T23:59:10.709Z,27.40
